createdAt,value
2023-04-28T00:00:05.959Z,51.53
2023-04-28T00:02:36.111Z,51.93
2023-04-28T00:05:06.852Z,52.29
2023-04-28T00:07:39.851Z,52.85
2023-04-28T00:10:11.515Z,52.96
2023-04-28T00:12:41.442Z,53.85
2023-04-28T00:15:13.632Z,54.19
2023-04-28T00:17:43.678Z,54.75
2023-04-28T00:20:14.904Z,55.15
2023-04-28T00:22:47.617Z,55.97
2023-04-28T00:25:17.548Z,56.04
2023-04-28T00:27:47.534Z,56.34
2023-04-28T00:30:18.174Z,56.82
2023-04-28T00:32:48.582Z,57.26
2023-04-28T00:35:18.535Z,57.69
2023-04-28T00:37:51.117Z,57.90
2023-04-28T00:40:21.316Z,58.19
2023-04-28T00:42:51.285Z,58.32
2023-04-28T00:45:21.400Z,58.75
2023-04-28T00:47:51.333Z,58.61
2023-04-28T00:50:21.545Z,59.02
2023-04-28T00:52:54.845Z,59.33
2023-04-28T00:55:25.275Z,59.50
2023-04-28T00:57:55.540Z,59.86
2023-04-28T01:00:25.872Z,60.14
2023-04-28T01:02:58.438Z,60.43
2023-04-28T01:05:29.633Z,60.37
2023-04-28T01:08:02.136Z,60.91
2023-04-28T01:10:31.981Z,60.85
2023-04-28T01:13:01.837Z,61.21
2023-04-28T01:15:32.620Z,61.38
2023-04-28T01:18:02.905Z,61.55
2023-04-28T01:20:32.832Z,62.17
2023-04-28T01:23:05.692Z,62.30
2023-04-28T01:25:38.419Z,62.67
2023-04-28T01:28:08.509Z,62.78
2023-04-28T01:30:40.638Z,62.96
2023-04-28T01:33:10.882Z,63.29
2023-04-28T01:35:40.777Z,63.63
2023-04-28T01:38:10.685Z,63.87
2023-04-28T01:40:46.121Z,64.09
2023-04-28T01:43:16.113Z,64.12
2023-04-28T01:45:47.265Z,64.23
2023-04-28T01:48:17.065Z,64.58
2023-04-28T01:50:46.806Z,64.98
2023-04-28T01:53:24.221Z,64.92
2023-04-28T01:56:11.664Z,66.70
2023-04-28T01:58:41.527Z,65.61
2023-04-28T02:01:11.696Z,65.96
2023-04-28T02:03:41.706Z,66.12
2023-04-28T02:06:11.609Z,66.63
2023-04-28T02:08:41.495Z,66.83
2023-04-28T02:11:13.962Z,67.03
2023-04-28T02:13:43.787Z,66.94
2023-04-28T02:16:13.701Z,67.75
2023-04-28T02:18:43.693Z,68.09
2023-04-28T02:21:14.285Z,67.92
2023-04-28T02:23:44.103Z,67.98
2023-04-28T02:26:17.372Z,68.79
2023-04-28T02:28:47.199Z,68.92
2023-04-28T02:31:17.085Z,69.18
2023-04-28T02:33:46.936Z,69.31
2023-04-28T02:36:16.985Z,69.65
2023-04-28T02:38:46.896Z,69.73
2023-04-28T02:41:19.401Z,69.99
2023-04-28T02:43:49.249Z,69.67
2023-04-28T02:46:19.291Z,69.75
2023-04-28T02:48:49.241Z,69.97
2023-04-28T02:51:19.079Z,69.90
2023-04-28T02:53:48.964Z,69.81
2023-04-28T02:56:21.470Z,70.28
2023-04-28T02:58:51.586Z,70.22
2023-04-28T03:01:21.622Z,70.57
2023-04-28T03:03:51.678Z,70.57
2023-04-28T03:06:21.567Z,70.55
2023-04-28T03:08:51.398Z,70.80
2023-04-28T03:11:23.870Z,71.01
2023-04-28T03:13:53.668Z,70.70
2023-04-28T03:16:23.647Z,71.06
2023-04-28T03:18:53.506Z,71.15
2023-04-28T03:21:23.385Z,71.33
2023-04-28T03:23:53.618Z,71.75
2023-04-28T03:26:26.145Z,71.91
2023-04-28T03:28:57.167Z,71.75
2023-04-28T03:31:27.275Z,71.70
2023-04-28T03:33:57.133Z,72.00
2023-04-28T03:36:27.766Z,72.20
2023-04-28T03:38:57.809Z,72.14
2023-04-28T03:41:30.357Z,72.45
2023-04-28T03:44:00.459Z,72.91
2023-04-28T03:46:30.498Z,72.80
2023-04-28T03:49:00.352Z,73.11
2023-04-28T03:51:30.927Z,73.26
2023-04-28T03:54:00.979Z,73.34
2023-04-28T03:56:33.531Z,73.63
2023-04-28T03:59:03.333Z,73.83
2023-04-28T04:01:33.250Z,74.51
2023-04-28T04:04:03.412Z,74.52
2023-04-28T04:06:34.224Z,74.56
2023-04-28T04:09:04.099Z,75.09
2023-04-28T04:11:36.638Z,75.36
2023-04-28T04:14:06.577Z,75.20
2023-04-28T04:16:36.508Z,75.29
2023-04-28T04:19:06.364Z,75.29
2023-04-28T04:21:36.440Z,75.41
2023-04-28T04:24:07.150Z,75.86
2023-04-28T04:26:39.713Z,76.36
2023-04-28T04:29:09.553Z,76.37
2023-04-28T04:31:39.951Z,76.52
2023-04-28T04:34:09.963Z,76.46
2023-04-28T04:36:40.102Z,76.47
2023-04-28T04:39:09.922Z,76.41
2023-04-28T04:41:42.658Z,77.67
2023-04-28T04:44:14.170Z,77.39
2023-04-28T04:46:44.461Z,77.83
2023-04-28T04:49:14.352Z,78.15
2023-04-28T04:51:44.451Z,78.73
2023-04-28T04:54:14.559Z,78.66
2023-04-28T04:56:49.044Z,79.55
2023-04-28T04:59:22.315Z,79.53
2023-04-28T05:01:52.494Z,79.16
2023-04-28T05:04:22.899Z,79.69
2023-04-28T05:06:53.077Z,79.68
2023-04-28T05:09:23.412Z,79.81
2023-04-28T05:11:56.309Z,80.33
2023-04-28T05:14:26.250Z,80.57
2023-04-28T05:16:57.185Z,80.82
2023-04-28T05:19:27.735Z,80.41
2023-04-28T05:21:57.590Z,80.95
2023-04-28T05:24:27.556Z,82.22
2023-04-28T05:27:01.919Z,83.15
2023-04-28T05:29:31.840Z,83.05
2023-04-28T05:32:01.963Z,84.00
2023-04-28T05:34:33.934Z,83.89
2023-04-28T05:37:04.130Z,84.44
2023-04-28T05:39:34.051Z,84.57
2023-04-28T05:42:06.909Z,84.86
2023-04-28T05:44:36.914Z,85.09
2023-04-28T05:47:07.118Z,85.14
2023-04-28T05:49:37.032Z,86.32
2023-04-28T05:52:07.613Z,85.56
2023-04-28T05:54:37.833Z,85.03
2023-04-28T05:57:10.777Z,85.38
2023-04-28T05:59:40.750Z,85.75
2023-04-28T06:02:10.874Z,85.34
2023-04-28T06:04:41.936Z,86.33
2023-04-28T06:07:14.869Z,86.43
2023-04-28T06:09:45.331Z,86.39
2023-04-28T06:12:18.360Z,86.75
2023-04-28T06:14:48.538Z,86.72
2023-04-28T06:17:18.435Z,86.54
2023-04-28T06:19:48.307Z,87.12
2023-04-28T06:22:18.445Z,88.02
2023-04-28T06:24:48.323Z,87.95
2023-04-28T06:27:20.969Z,88.08
2023-04-28T06:29:50.786Z,88.56
2023-04-28T06:32:20.836Z,88.38
2023-04-28T06:34:50.713Z,88.76
2023-04-28T06:37:20.760Z,89.00
2023-04-28T06:39:50.868Z,89.48
2023-04-28T06:42:23.495Z,89.43
2023-04-28T06:44:53.352Z,88.81
2023-04-28T06:47:23.546Z,89.16
2023-04-28T06:49:54.495Z,89.28
2023-04-28T06:52:33.434Z,90.00
2023-04-28T06:55:09.880Z,90.39
2023-04-28T06:57:42.844Z,90.42
2023-04-28T07:00:14.252Z,89.80
2023-04-28T07:02:44.364Z,90.21
2023-04-28T07:05:16.117Z,88.89
2023-04-28T07:07:48.308Z,89.04
2023-04-28T07:10:18.528Z,88.49
2023-04-28T07:12:53.056Z,88.59
2023-04-28T07:15:24.175Z,88.09
2023-04-28T07:17:54.123Z,88.29
2023-04-28T07:20:24.071Z,89.07
2023-04-28T07:22:53.972Z,89.19
2023-04-28T07:25:24.193Z,88.81
2023-04-28T07:27:58.389Z,89.35
2023-04-28T07:30:28.473Z,89.77
2023-04-28T07:32:58.764Z,89.56
2023-04-28T07:35:29.253Z,89.12
2023-04-28T07:37:59.872Z,88.89
2023-04-28T07:40:29.818Z,88.44
2023-04-28T07:43:02.711Z,88.30
2023-04-28T07:45:33.188Z,88.48
2023-04-28T07:48:03.213Z,89.12
2023-04-28T07:50:33.398Z,88.13
2023-04-28T07:53:03.298Z,88.00
2023-04-28T07:55:33.214Z,88.05
2023-04-28T07:58:05.958Z,88.59
2023-04-28T08:00:35.925Z,87.88
2023-04-28T08:03:06.284Z,87.29
2023-04-28T08:05:36.468Z,87.82
2023-04-28T08:08:06.522Z,87.35
2023-04-28T08:10:36.455Z,86.76
2023-04-28T08:13:09.002Z,86.37
2023-04-28T08:15:38.986Z,86.44
2023-04-28T08:18:09.085Z,85.83
2023-04-28T08:20:39.081Z,84.56
2023-04-28T08:23:08.915Z,85.15
2023-04-28T08:25:38.807Z,85.25
2023-04-28T08:28:11.387Z,85.40
2023-04-28T08:30:41.486Z,84.91
2023-04-28T08:33:11.443Z,84.34
2023-04-28T08:35:42.539Z,84.31
2023-04-28T08:38:14.265Z,83.88
2023-04-28T08:40:44.899Z,83.65
2023-04-28T08:43:17.437Z,83.38
2023-04-28T08:45:47.722Z,83.12
2023-04-28T08:48:25.349Z,83.21
2023-04-28T08:50:56.074Z,83.30
2023-04-28T08:53:28.526Z,83.48
2023-04-28T08:55:59.866Z,83.57
2023-04-28T08:58:32.607Z,82.91
2023-04-28T09:01:03.517Z,83.04
2023-04-28T09:03:34.274Z,82.99
2023-04-28T09:06:05.333Z,82.80
2023-04-28T09:08:35.291Z,82.66
2023-04-28T09:11:13.861Z,82.60
2023-04-28T09:13:46.418Z,83.04
2023-04-28T09:16:16.431Z,82.79
2023-04-28T09:18:59.928Z,83.32
2023-04-28T09:21:29.793Z,83.41
2023-04-28T09:23:59.897Z,83.31
2023-04-28T09:26:29.750Z,83.91
2023-04-28T09:29:17.587Z,85.61
2023-04-28T09:31:47.844Z,84.61
2023-04-28T09:34:18.513Z,84.56
2023-04-28T09:36:49.083Z,84.44
2023-04-28T09:39:31.236Z,84.14
2023-04-28T09:42:03.669Z,84.26
2023-04-28T09:44:36.519Z,83.43
2023-04-28T09:47:25.261Z,83.78
2023-04-28T09:50:00.079Z,82.99
2023-04-28T09:52:30.531Z,82.97
2023-04-28T09:55:00.969Z,83.19
2023-04-28T09:57:34.813Z,83.57
2023-04-28T10:00:09.549Z,83.76
2023-04-28T10:02:43.706Z,83.33
2023-04-28T10:05:16.597Z,83.46
2023-04-28T10:07:47.529Z,83.42
2023-04-28T10:10:19.404Z,83.14
2023-04-28T10:12:49.904Z,82.53
2023-04-28T10:15:23.339Z,81.77
2023-04-28T10:17:54.112Z,82.11
2023-04-28T10:20:26.477Z,81.65
2023-04-28T10:23:07.869Z,82.83
2023-04-28T10:25:39.776Z,82.00
2023-04-28T10:28:11.566Z,81.84
2023-04-28T10:30:44.272Z,82.26
2023-04-28T10:33:32.589Z,82.53
2023-04-28T10:36:03.921Z,82.14
2023-04-28T10:38:34.089Z,82.32
2023-04-28T10:41:04.808Z,81.76
2023-04-28T10:43:42.677Z,81.51
2023-04-28T10:46:15.703Z,82.49
2023-04-28T10:48:59.169Z,81.96
2023-04-28T10:51:33.362Z,82.56
2023-04-28T10:54:28.481Z,81.99
2023-04-28T10:57:23.323Z,81.97
2023-04-28T10:59:54.617Z,81.93
2023-04-28T11:02:48.245Z,82.43
2023-04-28T11:05:20.121Z,81.73
2023-04-28T11:08:33.486Z,82.43
2023-04-28T11:11:19.632Z,83.19
2023-04-28T11:13:50.369Z,83.24
2023-04-28T11:16:25.919Z,83.42
2023-04-28T11:19:05.580Z,84.13
2023-04-28T11:21:36.640Z,85.14
2023-04-28T11:24:13.152Z,84.84
2023-04-28T11:26:44.005Z,85.92
2023-04-28T11:29:15.313Z,85.26
2023-04-28T11:31:52.964Z,85.89
2023-04-28T11:34:26.930Z,86.26
2023-04-28T11:36:59.198Z,86.53
2023-04-28T11:39:31.786Z,86.63
2023-04-28T11:42:03.127Z,87.04
2023-04-28T11:44:34.668Z,87.42
2023-04-28T11:47:06.293Z,87.59
2023-04-28T11:49:46.713Z,88.74
2023-04-28T11:52:16.952Z,88.97
2023-04-28T11:54:46.922Z,88.96
2023-04-28T11:57:27.029Z,88.73
2023-04-28T11:59:57.197Z,89.10
2023-04-28T12:02:31.360Z,89.32
2023-04-28T12:05:09.585Z,88.99
2023-04-28T12:07:45.933Z,89.51
2023-04-28T12:10:19.184Z,90.18
2023-04-28T12:12:52.682Z,89.73
2023-04-28T12:15:25.029Z,90.58
2023-04-28T12:17:55.431Z,90.67
2023-04-28T12:20:42.927Z,92.50
2023-04-28T12:23:13.177Z,92.32
2023-04-28T12:25:49.699Z,91.90
2023-04-28T12:28:19.718Z,91.42
2023-04-28T12:30:50.014Z,91.99
2023-04-28T12:33:27.716Z,91.07
2023-04-28T12:36:01.730Z,91.51
2023-04-28T12:38:32.653Z,91.49
2023-04-28T12:41:02.946Z,90.80
2023-04-28T12:43:33.550Z,90.05
2023-04-28T12:46:04.345Z,89.00
2023-04-28T12:48:35.105Z,89.01
2023-04-28T12:51:09.413Z,88.34
2023-04-28T12:53:39.528Z,87.73
2023-04-28T12:56:10.590Z,86.70
2023-04-28T12:58:41.482Z,86.15
2023-04-28T13:01:13.787Z,85.09
2023-04-28T13:03:44.625Z,85.04
2023-04-28T13:06:20.295Z,84.56
2023-04-28T13:08:50.174Z,84.57
2023-04-28T13:11:22.905Z,83.90
2023-04-28T13:13:53.611Z,84.25
2023-04-28T13:16:25.350Z,84.70
2023-04-28T13:18:55.227Z,84.24
2023-04-28T13:21:29.067Z,83.82
2023-04-28T13:23:59.680Z,83.44
2023-04-28T13:26:30.729Z,83.07
2023-04-28T13:29:00.890Z,82.42
2023-04-28T13:31:30.991Z,81.53
2023-04-28T13:34:02.780Z,81.83
2023-04-28T13:36:36.289Z,81.29
2023-04-28T13:39:06.756Z,80.95
2023-04-28T13:41:37.203Z,80.89
2023-04-28T13:44:07.216Z,80.75
2023-04-28T13:46:37.226Z,80.51
2023-04-28T13:49:07.517Z,79.92
2023-04-28T13:51:40.147Z,80.06
2023-04-28T13:54:11.774Z,79.97
2023-04-28T13:56:41.866Z,79.56
2023-04-28T13:59:11.782Z,79.92
2023-04-28T14:01:41.678Z,79.90
2023-04-28T14:04:11.886Z,79.27
2023-04-28T14:06:46.970Z,78.68
2023-04-28T14:09:17.261Z,79.36
2023-04-28T14:11:49.065Z,79.21
2023-04-28T14:14:19.238Z,78.95
2023-04-28T14:16:50.542Z,78.99
2023-04-28T14:19:21.155Z,78.81
2023-04-28T14:21:53.890Z,78.75
2023-04-28T14:24:24.182Z,78.76
2023-04-28T14:26:55.261Z,78.72
2023-04-28T14:29:25.185Z,77.85
2023-04-28T14:31:55.059Z,77.06
2023-04-28T14:34:25.065Z,77.04
2023-04-28T14:36:57.711Z,77.20
2023-04-28T14:39:27.621Z,77.63
2023-04-28T14:41:57.614Z,77.45
2023-04-28T14:44:27.685Z,77.46
2023-04-28T14:46:57.680Z,76.96
2023-04-28T14:49:27.861Z,77.14
2023-04-28T14:52:01.155Z,77.16
2023-04-28T14:54:31.331Z,77.51
2023-04-28T14:57:01.891Z,76.79
2023-04-28T14:59:31.846Z,76.52
2023-04-28T15:02:02.157Z,76.73
2023-04-28T15:04:32.230Z,76.41
2023-04-28T15:07:04.817Z,76.07
2023-04-28T15:09:34.699Z,76.46
2023-04-28T15:12:04.645Z,76.64
2023-04-28T15:14:34.704Z,77.04
2023-04-28T15:17:04.588Z,76.59
2023-04-28T15:19:34.957Z,76.23
2023-04-28T15:22:07.570Z,75.80
2023-04-28T15:24:37.737Z,76.40
2023-04-28T15:27:07.725Z,76.09
2023-04-28T15:29:38.405Z,75.98
2023-04-28T15:32:08.913Z,75.28
2023-04-28T15:34:39.174Z,75.28
2023-04-28T15:37:43.807Z,75.23
2023-04-28T15:40:15.918Z,74.60
2023-04-28T15:42:49.584Z,75.11
2023-04-28T15:45:20.197Z,74.84
2023-04-28T15:47:51.301Z,74.71
2023-04-28T15:50:22.128Z,74.56
2023-04-28T15:52:54.873Z,73.72
2023-04-28T15:55:25.627Z,73.27
2023-04-28T15:57:55.564Z,72.35
2023-04-28T16:00:25.853Z,72.55
2023-04-28T16:02:55.804Z,73.12
2023-04-28T16:05:26.495Z,72.86
2023-04-28T16:07:58.997Z,72.19
2023-04-28T16:10:28.996Z,72.08
2023-04-28T16:12:59.052Z,72.33
2023-04-28T16:15:28.850Z,72.53
2023-04-28T16:17:58.883Z,72.65
2023-04-28T16:20:28.721Z,72.40
2023-04-28T16:23:01.266Z,72.37
2023-04-28T16:25:31.158Z,72.59
2023-04-28T16:28:01.156Z,72.75
2023-04-28T16:30:31.120Z,72.47
2023-04-28T16:33:01.124Z,73.23
2023-04-28T16:35:31.034Z,73.29
2023-04-28T16:38:03.679Z,73.87
2023-04-28T16:40:33.730Z,74.24
2023-04-28T16:43:03.702Z,74.36
2023-04-28T16:45:33.841Z,74.35
2023-04-28T16:48:03.866Z,74.83
2023-04-28T16:50:36.580Z,74.94
2023-04-28T16:53:10.402Z,75.05
2023-04-28T16:55:40.755Z,75.01
2023-04-28T16:58:10.685Z,75.48
2023-04-28T17:00:40.614Z,75.19
2023-04-28T17:03:10.567Z,74.93
2023-04-28T17:05:40.521Z,75.19
2023-04-28T17:08:13.351Z,75.48
2023-04-28T17:10:43.173Z,75.00
2023-04-28T17:13:12.941Z,75.48
2023-04-28T17:15:43.105Z,75.07
2023-04-28T17:18:12.915Z,75.13
2023-04-28T17:20:43.236Z,75.40
2023-04-28T17:23:15.992Z,75.25
2023-04-28T17:25:45.894Z,74.99
2023-04-28T17:28:15.905Z,75.28
2023-04-28T17:30:47.603Z,75.57
2023-04-28T17:33:18.177Z,76.14
2023-04-28T17:35:48.262Z,75.99
2023-04-28T17:38:20.661Z,75.95
2023-04-28T17:40:51.320Z,76.38
2023-04-28T17:43:21.998Z,76.61
2023-04-28T17:45:54.403Z,76.42
2023-04-28T17:48:24.506Z,77.20
2023-04-28T17:50:54.676Z,77.49
2023-04-28T17:53:27.616Z,78.23
2023-04-28T17:55:57.636Z,78.35
2023-04-28T17:58:27.578Z,78.33
2023-04-28T18:01:03.277Z,78.86
2023-04-28T18:03:33.697Z,78.39
2023-04-28T18:06:07.781Z,79.00
2023-04-28T18:08:40.375Z,79.15
2023-04-28T18:11:10.232Z,79.60
2023-04-28T18:13:40.145Z,79.53
2023-04-28T18:16:14.045Z,79.39
2023-04-28T18:18:44.711Z,79.34
2023-04-28T18:21:15.145Z,79.54
2023-04-28T18:23:48.170Z,79.76
2023-04-28T18:26:18.391Z,79.84
2023-04-28T18:28:49.741Z,79.69
2023-04-28T18:31:19.743Z,79.95
2023-04-28T18:33:50.056Z,80.22
2023-04-28T18:36:19.922Z,80.32
2023-04-28T18:38:52.466Z,80.00
2023-04-28T18:41:22.225Z,81.23
2023-04-28T18:43:52.138Z,81.67
2023-04-28T18:46:22.467Z,81.72
2023-04-28T18:48:52.498Z,81.89
2023-04-28T18:51:22.852Z,81.90
2023-04-28T18:53:55.306Z,82.13
2023-04-28T18:56:26.663Z,82.20
2023-04-28T18:58:57.014Z,82.13
2023-04-28T19:01:27.760Z,82.27
2023-04-28T19:03:57.926Z,82.34
2023-04-28T19:06:27.866Z,82.32
2023-04-28T19:09:01.792Z,83.28
2023-04-28T19:11:32.441Z,82.96
2023-04-28T19:14:02.433Z,83.50
2023-04-28T19:16:32.323Z,83.57
2023-04-28T19:19:02.683Z,84.08
2023-04-28T19:21:34.521Z,83.62
2023-04-28T19:24:07.555Z,83.72
2023-04-28T19:26:37.855Z,83.89
2023-04-28T19:29:08.178Z,83.99
2023-04-28T19:31:38.080Z,84.35
2023-04-28T19:34:07.981Z,84.43
2023-04-28T19:36:39.335Z,84.31
2023-04-28T19:39:11.911Z,84.32
2023-04-28T19:41:41.790Z,84.10
2023-04-28T19:44:11.774Z,84.32
2023-04-28T19:46:42.934Z,84.01
2023-04-28T19:49:14.535Z,84.43
2023-04-28T19:51:44.588Z,84.78
2023-04-28T19:54:17.114Z,84.57
2023-04-28T19:56:47.219Z,84.80
2023-04-28T19:59:17.872Z,85.11
2023-04-28T20:01:47.888Z,85.20
2023-04-28T20:04:18.934Z,85.17
2023-04-28T20:06:49.113Z,85.47
2023-04-28T20:09:21.856Z,85.54
2023-04-28T20:11:51.753Z,86.07
2023-04-28T20:14:21.862Z,86.01
2023-04-28T20:16:51.797Z,86.69
2023-04-28T20:19:21.726Z,86.88
2023-04-28T20:21:51.924Z,86.49
2023-04-28T20:24:24.632Z,87.10
2023-04-28T20:26:54.958Z,88.48
2023-04-28T20:29:25.393Z,87.97
2023-04-28T20:31:55.340Z,88.07
2023-04-28T20:34:25.377Z,88.29
2023-04-28T20:36:55.955Z,88.41
2023-04-28T20:39:28.627Z,89.35
2023-04-28T20:41:59.602Z,89.44
2023-04-28T20:44:32.801Z,90.38
2023-04-28T20:47:02.767Z,89.95
2023-04-28T20:49:33.132Z,90.23
2023-04-28T20:52:06.698Z,91.14
2023-04-28T20:54:40.095Z,91.20
2023-04-28T20:57:09.989Z,91.21
2023-04-28T20:59:39.989Z,91.01
2023-04-28T21:02:11.597Z,90.96
2023-04-28T21:04:41.684Z,90.81
2023-04-28T21:07:11.533Z,91.10
2023-04-28T21:09:44.209Z,91.37
2023-04-28T21:12:15.108Z,91.14
2023-04-28T21:14:45.375Z,91.11
2023-04-28T21:17:15.519Z,91.60
2023-04-28T21:19:45.444Z,91.30
2023-04-28T21:22:15.298Z,91.67
2023-04-28T21:24:47.977Z,92.26
2023-04-28T21:27:18.098Z,92.08
2023-04-28T21:29:47.996Z,93.11
2023-04-28T21:32:18.070Z,93.31
2023-04-28T21:34:50.429Z,93.30
2023-04-28T21:37:20.390Z,94.09
2023-04-28T21:39:53.139Z,94.11
2023-04-28T21:42:23.138Z,93.96
2023-04-28T21:44:53.123Z,93.69
2023-04-28T21:47:22.954Z,93.94
2023-04-28T21:49:52.914Z,94.34
2023-04-28T21:52:22.745Z,94.50
2023-04-28T21:54:55.500Z,94.77
2023-04-28T21:57:25.254Z,94.85
2023-04-28T21:59:55.233Z,94.81
2023-04-28T22:02:25.417Z,94.57
2023-04-28T22:04:55.569Z,94.58
2023-04-28T22:07:25.948Z,94.78
2023-04-28T22:09:59.924Z,96.16
2023-04-28T22:12:29.739Z,95.15
2023-04-28T22:15:00.343Z,95.14
2023-04-28T22:17:30.390Z,95.56
2023-04-28T22:20:00.281Z,95.21
2023-04-28T22:22:30.121Z,94.82
2023-04-28T22:25:02.818Z,94.79
2023-04-28T22:27:33.559Z,94.46
2023-04-28T22:30:04.192Z,93.80
2023-04-28T22:32:34.542Z,93.69
2023-04-28T22:35:04.925Z,93.63
2023-04-28T22:37:34.704Z,93.54
2023-04-28T22:40:08.694Z,93.76
2023-04-28T22:42:39.703Z,93.13
2023-04-28T22:45:10.929Z,92.58
2023-04-28T22:47:43.134Z,92.67
2023-04-28T22:50:14.535Z,92.41
2023-04-28T22:52:44.466Z,92.22
2023-04-28T22:55:17.077Z,91.70
2023-04-28T22:57:46.855Z,91.24
2023-04-28T23:00:18.662Z,91.43
2023-04-28T23:02:48.588Z,91.35
2023-04-28T23:05:18.685Z,91.15
2023-04-28T23:07:49.427Z,91.43
2023-04-28T23:10:22.197Z,91.56
2023-04-28T23:12:52.064Z,91.37
2023-04-28T23:15:22.125Z,91.19
2023-04-28T23:17:52.081Z,91.16
2023-04-28T23:20:22.134Z,91.17
2023-04-28T23:22:52.747Z,91.78
2023-04-28T23:25:25.653Z,91.38
2023-04-28T23:27:56.366Z,90.51
2023-04-28T23:30:26.410Z,90.78
2023-04-28T23:32:56.689Z,90.95
2023-04-28T23:35:26.725Z,90.97
2023-04-28T23:37:56.753Z,90.92
2023-04-28T23:40:29.733Z,90.52
2023-04-28T23:43:00.112Z,90.44
2023-04-28T23:45:30.072Z,90.61
2023-04-28T23:47:59.990Z,90.73
2023-04-28T23:50:30.798Z,90.32
2023-04-28T23:53:00.682Z,90.65
2023-04-28T23:55:33.122Z,90.42
2023-04-28T23:58:04.905Z,89.91
